createdAt,value
2023-01-08T00:01:11.143Z,3.80
2023-01-08T00:03:39.098Z,3.28
2023-01-08T00:06:10.883Z,4.10
2023-01-08T00:08:38.439Z,3.97
2023-01-08T00:11:06.126Z,3.60
2023-01-08T00:13:33.952Z,4.40
2023-01-08T00:16:15.489Z,4.25
2023-01-08T00:18:44.194Z,4.45
2023-01-08T00:21:12.117Z,3.90
2023-01-08T00:23:40.191Z,4.18
2023-01-08T00:26:09.639Z,4.57
2023-01-08T00:28:38.218Z,3.30
2023-01-08T00:31:10.999Z,4.57
2023-01-08T00:33:40.129Z,4.75
2023-01-08T00:36:09.436Z,4.00
2023-01-08T00:38:37.519Z,5.00
2023-01-08T00:41:05.417Z,4.85
2023-01-08T00:43:32.984Z,4.72
2023-01-08T00:46:00.528Z,5.47
2023-01-08T00:48:28.335Z,4.43
2023-01-08T00:50:55.866Z,4.38
2023-01-08T00:53:23.889Z,3.65
2023-01-08T00:55:51.313Z,4.60
2023-01-08T00:58:18.804Z,4.10
2023-01-08T01:00:46.359Z,4.25
2023-01-08T01:03:13.822Z,3.55
2023-01-08T01:05:41.331Z,4.35
2023-01-08T01:08:08.872Z,4.18
2023-01-08T01:10:38.410Z,4.78
2023-01-08T01:13:06.539Z,4.82
2023-01-08T01:15:34.048Z,5.32
2023-01-08T01:18:01.571Z,4.63
2023-01-08T01:20:28.989Z,5.38
2023-01-08T01:22:56.490Z,6.03
2023-01-08T01:25:23.997Z,4.53
2023-01-08T01:27:51.493Z,4.75
2023-01-08T01:30:19.038Z,4.82
2023-01-08T01:32:46.568Z,5.07
2023-01-08T01:35:14.054Z,4.88
2023-01-08T01:37:41.574Z,4.20
2023-01-08T01:40:09.632Z,5.82
2023-01-08T01:42:39.997Z,4.97
2023-01-08T01:45:24.100Z,5.63
2023-01-08T01:48:15.753Z,4.88
2023-01-08T01:50:48.831Z,6.43
2023-01-08T01:53:23.379Z,5.00
2023-01-08T01:55:51.514Z,4.28
2023-01-08T01:58:22.770Z,5.63
2023-01-08T02:00:52.454Z,5.68
2023-01-08T02:03:30.074Z,5.97
2023-01-08T02:06:14.001Z,5.75
2023-01-08T02:08:44.554Z,4.85
2023-01-08T02:11:22.457Z,4.50
2023-01-08T02:14:20.147Z,5.28
2023-01-08T02:17:01.968Z,4.35
2023-01-08T02:19:43.115Z,4.35
2023-01-08T02:22:41.408Z,3.33
2023-01-08T02:25:46.291Z,3.67
2023-01-08T02:28:15.619Z,2.80
2023-01-08T02:30:44.534Z,3.45
2023-01-08T02:33:12.747Z,3.85
2023-01-08T02:35:52.067Z,3.25
2023-01-08T02:38:19.594Z,3.83
2023-01-08T02:41:09.254Z,3.72
2023-01-08T02:43:45.656Z,3.30
2023-01-08T02:46:17.766Z,3.13
2023-01-08T02:49:02.693Z,2.70
2023-01-08T02:51:53.563Z,3.10
2023-01-08T02:54:25.115Z,2.88
2023-01-08T02:57:04.268Z,3.60
2023-01-08T02:59:34.093Z,2.90
2023-01-08T03:02:03.896Z,3.50
2023-01-08T03:04:38.131Z,3.40
2023-01-08T03:07:05.982Z,3.00
2023-01-08T03:09:33.543Z,2.40
2023-01-08T03:12:09.092Z,2.88
2023-01-08T03:15:00.107Z,3.00
2023-01-08T03:17:32.752Z,3.15
2023-01-08T03:20:05.049Z,3.10
2023-01-08T03:22:35.615Z,2.25
2023-01-08T03:25:05.428Z,2.25
2023-01-08T03:27:37.667Z,2.38
2023-01-08T03:30:07.736Z,2.83
2023-01-08T03:32:36.812Z,2.72
2023-01-08T03:35:07.305Z,2.35
2023-01-08T03:37:38.765Z,2.65
2023-01-08T03:40:10.373Z,2.13
2023-01-08T03:42:38.367Z,2.22
2023-01-08T03:45:07.179Z,2.72
2023-01-08T03:47:37.608Z,2.25
2023-01-08T03:50:10.104Z,2.75
2023-01-08T03:52:37.639Z,1.80
2023-01-08T03:55:05.433Z,2.45
2023-01-08T03:57:32.891Z,1.60
2023-01-08T04:00:00.349Z,2.15
2023-01-08T04:02:27.923Z,2.38
2023-01-08T04:04:55.502Z,1.73
2023-01-08T04:07:23.032Z,2.08
2023-01-08T04:09:50.462Z,2.47
2023-01-08T04:12:18.047Z,2.67
2023-01-08T04:14:45.510Z,2.85
2023-01-08T04:17:13.711Z,2.35
2023-01-08T04:19:41.238Z,3.03
2023-01-08T04:22:11.188Z,2.70
2023-01-08T04:24:38.855Z,2.88
2023-01-08T04:27:06.379Z,2.53
2023-01-08T04:29:33.854Z,3.17
2023-01-08T04:32:01.517Z,2.95
2023-01-08T04:34:29.207Z,2.83
2023-01-08T04:36:56.787Z,3.47
2023-01-08T04:39:24.276Z,3.30
2023-01-08T04:41:51.788Z,2.65
2023-01-08T04:44:19.242Z,3.17
2023-01-08T04:46:46.730Z,3.80
2023-01-08T04:49:14.372Z,2.97
2023-01-08T04:51:41.918Z,2.80
2023-01-08T04:54:09.348Z,3.45
2023-01-08T04:56:37.041Z,3.22
2023-01-08T04:59:04.734Z,2.90
2023-01-08T05:01:32.378Z,3.25
2023-01-08T05:04:02.870Z,3.65
2023-01-08T05:06:32.119Z,3.53
2023-01-08T05:08:59.870Z,4.07
2023-01-08T05:11:27.414Z,3.30
2023-01-08T05:13:54.989Z,3.00
2023-01-08T05:16:23.222Z,2.97
2023-01-08T05:18:50.758Z,3.55
2023-01-08T05:21:18.512Z,2.70
2023-01-08T05:23:47.897Z,3.15
2023-01-08T05:26:16.897Z,2.60
2023-01-08T05:28:44.769Z,2.55
2023-01-08T05:31:12.407Z,2.85
2023-01-08T05:33:40.216Z,3.20
2023-01-08T05:36:09.675Z,3.22
2023-01-08T05:38:37.850Z,2.88
2023-01-08T05:41:06.165Z,3.03
2023-01-08T05:43:33.690Z,2.72
2023-01-08T05:46:02.255Z,3.20
2023-01-08T05:48:32.057Z,3.40
2023-01-08T05:50:59.599Z,2.90
2023-01-08T05:53:27.259Z,3.40
2023-01-08T05:56:15.106Z,3.38
2023-01-08T05:58:42.601Z,3.33
2023-01-08T06:01:12.658Z,3.40
2023-01-08T06:03:40.227Z,3.38
2023-01-08T06:06:08.795Z,3.38
2023-01-08T06:08:36.295Z,3.88
2023-01-08T06:11:07.122Z,3.53
2023-01-08T06:13:37.891Z,3.70
2023-01-08T06:16:05.878Z,4.32
2023-01-08T06:18:33.395Z,3.95
2023-01-08T06:21:02.366Z,3.80
2023-01-08T06:23:29.981Z,3.58
2023-01-08T06:25:59.392Z,4.55
2023-01-08T06:28:27.231Z,4.57
2023-01-08T06:30:57.309Z,4.32
2023-01-08T06:33:24.898Z,3.95
2023-01-08T06:35:52.453Z,4.50
2023-01-08T06:38:20.068Z,3.95
2023-01-08T06:40:48.145Z,4.28
2023-01-08T06:43:15.970Z,3.95
2023-01-08T06:45:43.495Z,4.35
2023-01-08T06:48:11.001Z,5.05
2023-01-08T06:50:38.540Z,4.70
2023-01-08T06:53:06.023Z,4.28
2023-01-08T06:55:33.427Z,4.80
2023-01-08T07:00:56.433Z,4.43
2023-01-08T07:03:24.049Z,4.32
2023-01-08T07:05:51.572Z,4.95
2023-01-08T07:08:19.343Z,4.95
2023-01-08T07:10:46.889Z,5.45
2023-01-08T07:13:14.662Z,5.50
2023-01-08T07:15:42.958Z,5.47
2023-01-08T07:18:12.114Z,5.50
2023-01-08T07:20:39.689Z,5.32
2023-01-08T07:23:11.401Z,5.80
2023-01-08T07:25:39.005Z,5.18
2023-01-08T07:28:09.401Z,4.22
2023-01-08T07:30:36.893Z,5.20
2023-01-08T07:33:04.458Z,6.13
2023-01-08T07:35:31.985Z,5.30
2023-01-08T07:37:59.545Z,4.97
2023-01-08T07:40:27.018Z,5.15
2023-01-08T07:43:02.351Z,6.05
2023-01-08T07:45:31.577Z,4.70
2023-01-08T07:47:59.386Z,5.32
2023-01-08T07:50:27.389Z,4.72
2023-01-08T07:53:00.970Z,5.00
2023-01-08T07:55:30.028Z,5.30
2023-01-08T07:57:57.438Z,5.43
2023-01-08T08:00:25.407Z,6.40
2023-01-08T08:02:53.051Z,5.35
2023-01-08T08:05:20.590Z,5.22
2023-01-08T08:07:48.061Z,6.75
2023-01-08T08:10:15.753Z,5.90
2023-01-08T08:12:45.471Z,6.05
2023-01-08T08:15:13.054Z,5.40
2023-01-08T08:17:40.511Z,6.03
2023-01-08T08:20:08.496Z,4.93
2023-01-08T08:22:35.935Z,5.70
2023-01-08T08:25:03.624Z,6.22
2023-01-08T08:27:31.033Z,6.22
2023-01-08T08:29:58.510Z,5.82
2023-01-08T08:32:25.943Z,6.80
2023-01-08T08:34:53.402Z,6.63
2023-01-08T08:37:20.909Z,7.75
2023-01-08T08:39:48.403Z,5.35
2023-01-08T08:42:15.912Z,5.75
2023-01-08T08:44:43.472Z,5.88
2023-01-08T08:47:11.101Z,6.95
2023-01-08T08:49:38.623Z,6.38
2023-01-08T08:52:06.160Z,6.13
2023-01-08T08:54:33.720Z,5.97
2023-01-08T08:57:01.280Z,6.35
2023-01-08T08:59:28.731Z,6.50
2023-01-08T09:01:56.390Z,5.78
2023-01-08T09:04:23.906Z,5.88
2023-01-08T09:06:52.322Z,5.38
2023-01-08T09:09:19.966Z,5.78
2023-01-08T09:11:47.455Z,6.05
2023-01-08T09:14:14.964Z,5.57
2023-01-08T09:16:42.473Z,5.80
2023-01-08T09:19:10.368Z,5.70
2023-01-08T09:21:38.233Z,5.22
2023-01-08T09:24:06.367Z,6.00
2023-01-08T09:26:33.865Z,6.65
2023-01-08T09:29:01.492Z,4.57
2023-01-08T09:31:29.127Z,6.20
2023-01-08T09:33:56.673Z,6.13
2023-01-08T09:36:24.176Z,7.10
2023-01-08T09:38:51.680Z,6.35
2023-01-08T09:41:25.881Z,5.03
2023-01-08T09:43:55.811Z,5.30
2023-01-08T09:46:26.454Z,5.43
2023-01-08T09:48:59.717Z,6.28
2023-01-08T09:51:38.131Z,6.18
2023-01-08T09:54:07.602Z,6.25
2023-01-08T09:56:36.202Z,4.70
2023-01-08T09:59:04.961Z,5.97
2023-01-08T10:01:37.928Z,5.80
2023-01-08T10:04:20.576Z,5.35
2023-01-08T10:07:12.143Z,6.28
2023-01-08T10:09:40.956Z,6.25
2023-01-08T10:12:13.113Z,5.65
2023-01-08T10:14:48.379Z,6.10
2023-01-08T10:17:37.961Z,6.15
2023-01-08T10:20:17.554Z,5.93
2023-01-08T10:22:45.728Z,5.22
2023-01-08T10:25:16.828Z,5.68
2023-01-08T10:27:54.433Z,5.93
2023-01-08T10:30:29.345Z,6.10
2023-01-08T10:33:02.418Z,5.70
2023-01-08T10:35:35.493Z,5.35
2023-01-08T10:38:04.184Z,6.97
2023-01-08T10:40:46.164Z,5.50
2023-01-08T10:43:24.201Z,6.38
2023-01-08T10:46:03.191Z,6.47
2023-01-08T10:48:45.167Z,6.72
2023-01-08T10:51:23.834Z,7.25
2023-01-08T10:53:56.519Z,6.18
2023-01-08T10:56:26.884Z,6.68
2023-01-08T10:58:54.926Z,5.82
2023-01-08T11:01:30.621Z,6.38
2023-01-08T11:04:01.390Z,6.00
2023-01-08T11:06:46.843Z,5.85
2023-01-08T11:09:23.972Z,6.43
2023-01-08T11:11:51.860Z,5.57
2023-01-08T11:14:30.684Z,6.55
2023-01-08T11:16:59.297Z,5.93
2023-01-08T11:19:31.585Z,6.30
2023-01-08T11:22:17.319Z,6.53
2023-01-08T11:24:45.657Z,6.03
2023-01-08T11:27:13.078Z,5.78
2023-01-08T11:30:02.337Z,6.05
2023-01-08T11:32:48.347Z,6.03
2023-01-08T11:35:26.163Z,6.68
2023-01-08T11:37:58.314Z,6.50
2023-01-08T11:40:32.232Z,6.63
2023-01-08T11:43:20.152Z,5.57
2023-01-08T11:46:13.784Z,5.88
2023-01-08T11:49:22.630Z,6.93
2023-01-08T11:52:23.916Z,6.97
2023-01-08T11:55:03.840Z,7.00
2023-01-08T11:57:57.190Z,6.13
2023-01-08T12:00:50.960Z,7.30
2023-01-08T12:03:40.059Z,6.88
2023-01-08T12:06:28.360Z,6.32
2023-01-08T12:09:17.587Z,6.88
2023-01-08T12:11:53.402Z,6.15
2023-01-08T12:14:54.136Z,5.90
2023-01-08T12:17:52.467Z,7.43
2023-01-08T12:20:35.054Z,6.22
2023-01-08T12:23:35.045Z,5.40
2023-01-08T12:26:11.527Z,5.40
2023-01-08T12:29:09.993Z,6.38
2023-01-08T12:32:17.234Z,5.93
2023-01-08T12:35:06.253Z,5.90
2023-01-08T12:37:44.284Z,5.10
2023-01-08T12:40:29.493Z,6.07
2023-01-08T12:43:03.082Z,4.93
2023-01-08T12:45:43.329Z,5.65
2023-01-08T12:48:29.314Z,6.47
2023-01-08T12:51:01.648Z,5.93
2023-01-08T12:53:41.739Z,5.95
2023-01-08T12:56:25.559Z,5.60
2023-01-08T12:59:17.700Z,5.18
2023-01-08T13:01:55.570Z,5.22
2023-01-08T13:04:23.508Z,4.40
2023-01-08T13:07:21.445Z,3.55
2023-01-08T13:10:05.983Z,3.45
2023-01-08T13:12:40.274Z,3.20
2023-01-08T13:15:09.310Z,2.20
2023-01-08T13:17:38.265Z,3.00
2023-01-08T13:20:08.128Z,2.85
2023-01-08T13:22:37.449Z,2.88
2023-01-08T13:25:35.081Z,3.88
2023-01-08T13:28:29.748Z,2.58
2023-01-08T13:31:09.840Z,2.83
2023-01-08T13:33:39.742Z,2.50
2023-01-08T13:36:13.563Z,2.50
2023-01-08T13:38:41.786Z,3.35
2023-01-08T13:41:33.665Z,2.90
2023-01-08T13:44:06.854Z,3.25
2023-01-08T13:46:37.845Z,3.10
2023-01-08T13:49:09.793Z,3.30
2023-01-08T13:51:45.746Z,2.70
2023-01-08T13:56:42.416Z,3.50
2023-01-08T13:59:33.918Z,3.17
2023-01-08T14:02:01.836Z,2.33
2023-01-08T14:04:29.408Z,2.60
2023-01-08T14:07:13.599Z,2.65
2023-01-08T14:09:41.201Z,3.22
2023-01-08T14:12:14.447Z,3.20
2023-01-08T14:14:53.656Z,3.47
2023-01-08T14:17:26.526Z,2.92
2023-01-08T14:19:54.025Z,3.03
2023-01-08T14:22:27.557Z,3.58
2023-01-08T14:25:00.668Z,2.72
2023-01-08T14:27:31.029Z,2.70
2023-01-08T14:29:59.148Z,2.42
2023-01-08T14:32:29.616Z,3.10
2023-01-08T14:34:59.601Z,2.70
2023-01-08T14:37:27.249Z,2.60
2023-01-08T14:39:55.303Z,3.20
2023-01-08T14:42:47.279Z,2.78
2023-01-08T14:45:17.915Z,2.65
2023-01-08T14:47:50.827Z,2.67
2023-01-08T14:50:30.315Z,3.03
2023-01-08T14:53:24.447Z,3.00
2023-01-08T14:55:55.372Z,3.10
2023-01-08T14:58:27.704Z,4.35
2023-01-08T15:00:59.832Z,3.65
2023-01-08T15:03:34.479Z,3.13
2023-01-08T15:06:02.199Z,2.50
2023-01-08T15:08:38.587Z,2.95
2023-01-08T15:11:07.565Z,2.28
2023-01-08T15:13:38.223Z,3.17
2023-01-08T15:16:12.313Z,2.88
2023-01-08T15:18:52.223Z,2.70
2023-01-08T15:21:22.425Z,2.60
2023-01-08T15:23:56.152Z,2.30
2023-01-08T15:26:24.415Z,1.95
2023-01-08T15:28:56.418Z,2.22
2023-01-08T15:31:26.348Z,2.10
2023-01-08T15:33:54.394Z,2.80
2023-01-08T15:36:22.165Z,2.22
2023-01-08T15:38:51.547Z,2.22
2023-01-08T15:41:41.555Z,2.28
2023-01-08T15:44:12.931Z,2.78
2023-01-08T15:46:40.466Z,1.98
2023-01-08T15:49:08.130Z,2.08
2023-01-08T15:51:40.631Z,2.05
2023-01-08T15:54:12.035Z,2.47
2023-01-08T15:56:40.112Z,2.15
2023-01-08T15:59:08.017Z,2.45
2023-01-08T16:01:35.652Z,2.28
2023-01-08T16:04:03.277Z,2.15
2023-01-08T16:06:31.294Z,2.40
2023-01-08T16:09:00.486Z,2.40
2023-01-08T16:11:28.147Z,2.72
2023-01-08T16:13:55.640Z,2.70
2023-01-08T16:16:23.317Z,2.67
2023-01-08T16:18:52.508Z,2.50
2023-01-08T16:21:20.085Z,2.50
2023-01-08T16:23:47.553Z,2.58
2023-01-08T16:26:16.014Z,3.00
2023-01-08T16:28:44.574Z,3.30
2023-01-08T16:31:12.236Z,3.13
2023-01-08T16:33:39.865Z,2.83
2023-01-08T16:36:09.256Z,3.55
2023-01-08T16:38:37.215Z,3.45
2023-01-08T16:41:06.118Z,4.10
2023-01-08T16:43:40.947Z,3.97
2023-01-08T16:46:13.730Z,2.90
2023-01-08T16:48:42.713Z,3.28
2023-01-08T16:51:11.335Z,3.78
2023-01-08T16:53:39.366Z,3.63
2023-01-08T16:56:07.314Z,3.90
2023-01-08T16:58:37.779Z,3.97
2023-01-08T17:01:10.983Z,4.60
2023-01-08T17:03:38.765Z,3.45
2023-01-08T17:06:08.239Z,3.60
2023-01-08T17:08:40.061Z,3.60
2023-01-08T17:11:08.667Z,3.30
2023-01-08T17:13:36.511Z,3.55
2023-01-08T17:16:09.143Z,3.17
2023-01-08T17:18:36.879Z,2.67
2023-01-08T17:21:05.779Z,3.35
2023-01-08T17:23:33.369Z,3.08
2023-01-08T17:26:05.039Z,2.47
2023-01-08T17:28:32.677Z,3.10
2023-01-08T17:31:11.384Z,3.28
2023-01-08T17:33:39.452Z,3.28
2023-01-08T17:36:15.417Z,3.70
2023-01-08T17:38:43.274Z,4.47
2023-01-08T17:41:30.981Z,4.15
2023-01-08T17:43:58.756Z,2.60
2023-01-08T17:46:26.524Z,2.10
2023-01-08T17:48:54.073Z,2.60
2023-01-08T17:51:21.555Z,3.00
2023-01-08T17:53:49.076Z,4.28
2023-01-08T17:56:16.553Z,3.10
2023-01-08T17:58:44.140Z,3.05
2023-01-08T18:01:13.181Z,2.88
2023-01-08T18:03:40.866Z,3.15
2023-01-08T18:06:10.472Z,3.30
2023-01-08T18:08:38.897Z,2.35
2023-01-08T18:11:08.739Z,1.90
2023-01-08T18:13:36.734Z,2.25
2023-01-08T18:16:05.358Z,2.35
2023-01-08T18:18:32.986Z,2.30
2023-01-08T18:21:00.559Z,2.08
2023-01-08T18:23:28.175Z,2.63
2023-01-08T18:25:55.621Z,2.42
2023-01-08T18:28:23.385Z,3.15
2023-01-08T18:30:50.849Z,2.50
2023-01-08T18:33:18.352Z,2.95
2023-01-08T18:35:45.866Z,3.47
2023-01-08T18:38:16.414Z,3.25
2023-01-08T18:40:44.405Z,3.22
2023-01-08T18:43:12.788Z,2.78
2023-01-08T18:45:41.153Z,4.28
2023-01-08T18:48:11.919Z,3.38
2023-01-08T18:50:40.572Z,2.90
2023-01-08T18:53:09.059Z,2.85
2023-01-08T18:55:37.720Z,3.15
2023-01-08T18:58:05.271Z,2.60
2023-01-08T19:00:32.823Z,3.05
2023-01-08T19:03:00.318Z,3.33
2023-01-08T19:05:27.884Z,3.30
2023-01-08T19:07:55.502Z,3.28
2023-01-08T19:10:23.067Z,2.92
2023-01-08T19:12:50.914Z,2.75
2023-01-08T19:15:18.506Z,2.97
2023-01-08T19:17:46.084Z,3.00
2023-01-08T19:20:13.688Z,3.30
2023-01-08T19:22:41.101Z,3.03
2023-01-08T19:25:09.172Z,3.28
2023-01-08T19:27:37.821Z,2.80
2023-01-08T19:30:05.899Z,2.88
2023-01-08T19:32:33.535Z,2.42
2023-01-08T19:35:01.631Z,2.88
2023-01-08T19:37:29.119Z,2.83
2023-01-08T19:40:01.052Z,2.45
2023-01-08T19:42:47.493Z,2.72
2023-01-08T19:45:15.269Z,2.70
2023-01-08T19:47:43.028Z,2.70
2023-01-08T19:50:11.147Z,3.08
2023-01-08T19:52:38.667Z,3.40
2023-01-08T19:55:06.484Z,3.65
2023-01-08T19:57:33.991Z,3.25
2023-01-08T20:00:01.639Z,3.78
2023-01-08T20:02:39.351Z,4.57
2023-01-08T20:05:07.174Z,3.70
2023-01-08T20:07:34.711Z,3.85
2023-01-08T20:10:04.064Z,4.93
2023-01-08T20:12:31.466Z,4.93
2023-01-08T20:14:59.488Z,5.43
2023-01-08T20:17:26.900Z,5.63
2023-01-08T20:19:54.460Z,4.90
2023-01-08T20:22:22.269Z,5.22
2023-01-08T20:24:50.852Z,5.57
2023-01-08T20:27:18.522Z,4.40
2023-01-08T20:29:46.175Z,4.30
2023-01-08T20:32:13.700Z,4.10
2023-01-08T20:34:42.256Z,3.85
2023-01-08T20:37:09.824Z,3.65
2023-01-08T20:39:37.602Z,3.90
2023-01-08T20:42:05.667Z,4.05
2023-01-08T20:44:33.353Z,4.00
2023-01-08T20:47:01.696Z,3.60
2023-01-08T20:49:29.739Z,4.18
2023-01-08T20:51:59.746Z,4.20
2023-01-08T20:54:29.124Z,3.85
2023-01-08T20:56:58.011Z,3.55
2023-01-08T20:59:26.348Z,2.85
2023-01-08T21:01:54.422Z,2.97
2023-01-08T21:04:22.523Z,3.60
2023-01-08T21:06:50.105Z,3.03
2023-01-08T21:09:18.226Z,3.58
2023-01-08T21:11:45.849Z,3.40
2023-01-08T21:14:13.473Z,3.45
2023-01-08T21:16:41.105Z,3.90
2023-01-08T21:19:11.702Z,3.33
2023-01-08T21:21:40.863Z,2.78
2023-01-08T21:24:11.285Z,3.55
2023-01-08T21:26:39.201Z,3.45
2023-01-08T21:29:08.906Z,4.18
2023-01-08T21:31:37.294Z,3.40
2023-01-08T21:34:06.272Z,3.30
2023-01-08T21:36:33.928Z,4.10
2023-01-08T21:39:02.074Z,3.45
2023-01-08T21:41:49.525Z,3.88
2023-01-08T21:44:38.046Z,3.25
2023-01-08T21:47:08.422Z,4.30
2023-01-08T21:49:36.712Z,3.63
2023-01-08T21:52:23.737Z,2.95
2023-01-08T21:54:51.664Z,4.25
2023-01-08T21:57:19.496Z,3.15
2023-01-08T21:59:50.401Z,2.50
2023-01-08T22:02:19.809Z,4.25
2023-01-08T22:04:47.555Z,3.50
2023-01-08T22:07:15.740Z,3.83
2023-01-08T22:09:43.192Z,2.40
2023-01-08T22:12:10.914Z,2.65
2023-01-08T22:14:38.497Z,3.35
2023-01-08T22:17:08.626Z,3.75
2023-01-08T22:19:39.982Z,2.58
2023-01-08T22:22:10.484Z,2.47
2023-01-08T22:24:39.680Z,2.47
2023-01-08T22:27:08.413Z,2.55
2023-01-08T22:29:37.506Z,2.50
2023-01-08T22:32:05.390Z,2.95
2023-01-08T22:34:34.128Z,2.50
2023-01-08T22:37:02.399Z,2.72
2023-01-08T22:39:30.210Z,2.97
2023-01-08T22:41:57.855Z,3.40
2023-01-08T22:44:25.350Z,3.03
2023-01-08T22:46:52.907Z,2.30
2023-01-08T22:49:20.553Z,2.80
2023-01-08T22:51:47.989Z,2.38
2023-01-08T22:54:17.915Z,2.28
2023-01-08T22:56:45.367Z,2.30
2023-01-08T22:59:12.889Z,1.95
2023-01-08T23:01:40.432Z,2.60
2023-01-08T23:04:08.154Z,2.83
2023-01-08T23:06:36.269Z,2.10
2023-01-08T23:09:04.247Z,2.65
2023-01-08T23:11:31.776Z,2.95
2023-01-08T23:14:00.901Z,2.15
2023-01-08T23:16:28.572Z,2.42
2023-01-08T23:18:56.667Z,2.35
2023-01-08T23:21:25.637Z,1.85
2023-01-08T23:23:53.312Z,2.25
2023-01-08T23:26:24.231Z,1.63
2023-01-08T23:28:53.401Z,1.50
2023-01-08T23:31:24.519Z,1.60
2023-01-08T23:33:53.083Z,2.03
2023-01-08T23:36:21.600Z,2.13
2023-01-08T23:38:52.045Z,1.60
2023-01-08T23:41:21.649Z,2.05
2023-01-08T23:43:50.297Z,2.30
2023-01-08T23:46:18.405Z,2.20
2023-01-08T23:48:45.941Z,2.47
2023-01-08T23:51:13.513Z,2.83
2023-01-08T23:53:40.963Z,2.30
2023-01-08T23:56:08.532Z,1.58
2023-01-08T23:58:36.534Z,2.22
